KLM757 EHAM-MPTO
Flight info
| Callsign | KLM757 |
|---|---|
| Flight time | N/A |
| Altitude | 32000 |
| Route | IDRID L980 MANGO DCT ENHAQ DCT GAJIT DCT BAPHU DCT LESLU/M085F320 DCT SOMAX/M085F330 NATG NICSO/M084F340 DCT LOMPI M202 JEBBY DCT 41N060W 37N065W/M084F360 DCT LUNKR DCT AWSOM DCT DUNIG DCT RABAL DCT LAMER/N0490F360 DCT GTK G444 ONGAN UG444 LIDOL UM597 AGUJA LODOP1C |
| Aircraft | B77W/H-SDE1E2E3FGHIJ2J3J4J5M1RWXY/LB1D1 |
Departure
| Time | 2026-04-27 13:55 |
|---|---|
| Airport | Amsterdam Airport Schiphol (EHAM) |
Arrival
| Time | N/A |
|---|---|
| Airport | Tocumen International Airport (MPTO) |
| Time | Latitude | Longitude | Altitude | Speed | Heading |
|---|---|---|---|---|---|
| 2026-04-27 13:15 | 52.31343 | 4.76981 | 4 ft | 0 kts | 303° |
| 2026-04-27 13:30 | 52.31343 | 4.76982 | 3 ft | 0 kts | 303° |
| 2026-04-27 13:37 | 52.31336 | 4.76997 | 4 ft | 4 kts | 305° |
| 2026-04-27 13:37 | 52.31320 | 4.77031 | 5 ft | 4 kts | 315° |
| 2026-04-27 13:38 | 52.31300 | 4.77059 | 7 ft | 4 kts | 332° |
| 2026-04-27 13:38 | 52.31280 | 4.77070 | 5 ft | 4 kts | 4° |
| 2026-04-27 13:38 | 52.31267 | 4.77066 | 6 ft | 1 kts | 33° |
| 2026-04-27 13:38 | 52.31283 | 4.77082 | 5 ft | 4 kts | 34° |
| 2026-04-27 13:39 | 52.31292 | 4.77107 | 5 ft | 3 kts | 64° |
| 2026-04-27 13:39 | 52.31297 | 4.77146 | 4 ft | 4 kts | 84° |
| 2026-04-27 13:39 | 52.31296 | 4.77189 | 4 ft | 4 kts | 94° |
| 2026-04-27 13:39 | 52.31294 | 4.77233 | 3 ft | 4 kts | 95° |
| 2026-04-27 13:40 | 52.31292 | 4.77271 | 3 ft | 1 kts | 93° |
| 2026-04-27 13:43 | 52.31292 | 4.77284 | 4 ft | 5 kts | 93° |
| 2026-04-27 13:43 | 52.31314 | 4.77388 | 4 ft | 2 kts | 33° |
| 2026-04-27 13:43 | 52.31344 | 4.77385 | 4 ft | 7 kts | 339° |
| 2026-04-27 13:44 | 52.31406 | 4.77294 | 4 ft | 16 kts | 311° |
| 2026-04-27 13:44 | 52.31506 | 4.77201 | 4 ft | 18 kts | 355° |
| 2026-04-27 13:44 | 52.31566 | 4.77021 | 4 ft | 23 kts | 267° |
| 2026-04-27 13:44 | 52.31557 | 4.76761 | 4 ft | 23 kts | 266° |
| 2026-04-27 13:45 | 52.31548 | 4.76501 | 4 ft | 23 kts | 267° |
| 2026-04-27 13:45 | 52.31539 | 4.76242 | 4 ft | 23 kts | 267° |
| 2026-04-27 13:45 | 52.31529 | 4.75982 | 4 ft | 23 kts | 266° |
| 2026-04-27 13:45 | 52.31521 | 4.75722 | 4 ft | 23 kts | 267° |
| 2026-04-27 13:46 | 52.31512 | 4.75462 | 4 ft | 23 kts | 266° |
| 2026-04-27 13:46 | 52.31503 | 4.75203 | 3 ft | 23 kts | 266° |
| 2026-04-27 13:46 | 52.31495 | 4.74943 | 4 ft | 23 kts | 267° |
| 2026-04-27 13:46 | 52.31486 | 4.74684 | 4 ft | 23 kts | 266° |
| 2026-04-27 13:47 | 52.31477 | 4.74428 | 4 ft | 20 kts | 267° |
| 2026-04-27 13:47 | 52.31533 | 4.74302 | 4 ft | 14 kts | 351° |
| 2026-04-27 13:47 | 52.31628 | 4.74304 | 4 ft | 14 kts | 3° |
| 2026-04-27 13:47 | 52.31722 | 4.74313 | 4 ft | 14 kts | 3° |
| 2026-04-27 13:48 | 52.31817 | 4.74322 | 4 ft | 14 kts | 3° |
| 2026-04-27 13:48 | 52.31911 | 4.74331 | 4 ft | 14 kts | 2° |
| 2026-04-27 13:48 | 52.32015 | 4.74315 | 4 ft | 15 kts | 329° |
| 2026-04-27 13:48 | 52.32033 | 4.74162 | 3 ft | 22 kts | 274° |
| 2026-04-27 13:49 | 52.32043 | 4.73859 | 4 ft | 23 kts | 272° |
| 2026-04-27 13:49 | 52.32053 | 4.73604 | 4 ft | 22 kts | 274° |
| 2026-04-27 13:49 | 52.32091 | 4.73364 | 4 ft | 22 kts | 309° |
| 2026-04-27 13:49 | 52.32205 | 4.73190 | 4 ft | 22 kts | 319° |
| 2026-04-27 13:50 | 52.32323 | 4.73024 | 4 ft | 22 kts | 319° |
| 2026-04-27 13:50 | 52.32442 | 4.72859 | 4 ft | 22 kts | 319° |
| 2026-04-27 13:50 | 52.32560 | 4.72692 | 4 ft | 22 kts | 319° |
| 2026-04-27 13:50 | 52.32674 | 4.72520 | 4 ft | 22 kts | 311° |
| 2026-04-27 13:51 | 52.32780 | 4.72333 | 4 ft | 22 kts | 313° |
| 2026-04-27 13:51 | 52.32885 | 4.72145 | 4 ft | 22 kts | 312° |
| 2026-04-27 13:51 | 52.32984 | 4.71951 | 4 ft | 20 kts | 312° |
| 2026-04-27 13:51 | 52.33067 | 4.71801 | 4 ft | 18 kts | 311° |
| 2026-04-27 13:52 | 52.33140 | 4.71641 | 4 ft | 18 kts | 290° |
| 2026-04-27 13:52 | 52.33103 | 4.71463 | 4 ft | 18 kts | 229° |
| 2026-04-27 13:52 | 52.33013 | 4.71329 | 4 ft | 18 kts | 221° |
| 2026-04-27 13:52 | 52.32921 | 4.71197 | 4 ft | 18 kts | 221° |
| 2026-04-27 13:53 | 52.32914 | 4.70890 | 2 ft | 12 kts | 351° |
| 2026-04-27 13:53 | 52.32995 | 4.70906 | 1 ft | 7 kts | 1° |
| 2026-04-27 13:53 | 52.32998 | 4.70906 | 1 ft | 2 kts | 1° |
| 2026-04-27 13:54 | 52.33151 | 4.70918 | 0 ft | 54 kts | 3° |
| 2026-04-27 13:54 | 52.33757 | 4.70976 | 4 ft | 119 kts | 3° |
| 2026-04-27 13:54 | 52.34775 | 4.71075 | 5 ft | 171 kts | 5° |
| 2026-04-27 13:54 | 52.36000 | 4.71193 | 306 ft | 181 kts | 4° |
| 2026-04-27 13:55 | 52.37277 | 4.71312 | 868 ft | 186 kts | 5° |
| 2026-04-27 13:55 | 52.38560 | 4.71443 | 1535 ft | 184 kts | 6° |
| 2026-04-27 13:55 | 52.39868 | 4.71612 | 1838 ft | 198 kts | 4° |
| 2026-04-27 13:55 | 52.41291 | 4.71742 | 2089 ft | 213 kts | 5° |
| 2026-04-27 13:56 | 52.42823 | 4.71447 | 2203 ft | 232 kts | 337° |
| 2026-04-27 13:56 | 52.44250 | 4.70154 | 2570 ft | 240 kts | 323° |
| 2026-04-27 13:56 | 52.45496 | 4.68286 | 3124 ft | 245 kts | 316° |
| 2026-04-27 13:56 | 52.46496 | 4.66022 | 3622 ft | 251 kts | 288° |
| 2026-04-27 13:57 | 52.46655 | 4.63180 | 4170 ft | 254 kts | 270° |
| 2026-04-27 13:57 | 52.46652 | 4.60240 | 4630 ft | 262 kts | 272° |
| 2026-04-27 13:57 | 52.46686 | 4.57226 | 5179 ft | 266 kts | 272° |
| 2026-04-27 13:57 | 52.46433 | 4.54226 | 5608 ft | 273 kts | 246° |
| 2026-04-27 13:58 | 52.45235 | 4.51831 | 6113 ft | 276 kts | 215° |
| 2026-04-27 13:58 | 52.43592 | 4.50149 | 6539 ft | 283 kts | 212° |
| 2026-04-27 13:58 | 52.42057 | 4.48200 | 7023 ft | 279 kts | 235° |
| 2026-04-27 13:58 | 52.41101 | 4.45462 | 7466 ft | 278 kts | 245° |
| 2026-04-27 13:59 | 52.40213 | 4.42626 | 8014 ft | 279 kts | 244° |
| 2026-04-27 13:59 | 52.39313 | 4.39819 | 8694 ft | 277 kts | 244° |
| 2026-04-27 13:59 | 52.38411 | 4.37031 | 9301 ft | 278 kts | 243° |
| 2026-04-27 13:59 | 52.37516 | 4.34272 | 9911 ft | 278 kts | 243° |
| 2026-04-27 14:00 | 52.36590 | 4.31426 | 10432 ft | 281 kts | 243° |
| 2026-04-27 14:00 | 52.35654 | 4.28553 | 10717 ft | 294 kts | 243° |
| 2026-04-27 14:00 | 52.34661 | 4.25511 | 10864 ft | 312 kts | 243° |
| 2026-04-27 14:00 | 52.33645 | 4.22407 | 11033 ft | 330 kts | 243° |
| 2026-04-27 14:01 | 52.32530 | 4.19008 | 11197 ft | 349 kts | 243° |
| 2026-04-27 14:01 | 52.31352 | 4.15456 | 11580 ft | 360 kts | 240° |
| 2026-04-27 14:01 | 52.29951 | 4.12029 | 12177 ft | 367 kts | 234° |
| 2026-04-27 14:01 | 52.28366 | 4.08722 | 12917 ft | 371 kts | 232° |
| 2026-04-27 14:02 | 52.26726 | 4.05438 | 13698 ft | 375 kts | 232° |
| 2026-04-27 14:02 | 52.25077 | 4.02132 | 14452 ft | 377 kts | 232° |
| 2026-04-27 14:02 | 52.23404 | 3.98740 | 15159 ft | 380 kts | 233° |
| 2026-04-27 14:02 | 52.21773 | 3.95397 | 15846 ft | 383 kts | 233° |
| 2026-04-27 14:03 | 52.20115 | 3.91973 | 16532 ft | 387 kts | 233° |
| 2026-04-27 14:03 | 52.18425 | 3.88469 | 17227 ft | 390 kts | 233° |
| 2026-04-27 14:03 | 52.16763 | 3.85018 | 17894 ft | 394 kts | 233° |
| 2026-04-27 14:03 | 52.15065 | 3.81493 | 18557 ft | 397 kts | 233° |
| 2026-04-27 14:04 | 52.13355 | 3.77945 | 19131 ft | 401 kts | 233° |
| 2026-04-27 14:04 | 52.11624 | 3.74362 | 19725 ft | 403 kts | 233° |
| 2026-04-27 14:04 | 52.09885 | 3.70767 | 20316 ft | 406 kts | 234° |
| 2026-04-27 14:04 | 52.08135 | 3.67152 | 20902 ft | 408 kts | 234° |
| 2026-04-27 14:05 | 52.06367 | 3.63507 | 21468 ft | 411 kts | 234° |
| 2026-04-27 14:05 | 52.04589 | 3.59846 | 22033 ft | 415 kts | 234° |
| 2026-04-27 14:05 | 52.02795 | 3.56155 | 22576 ft | 418 kts | 234° |
| 2026-04-27 14:05 | 52.00987 | 3.52444 | 23137 ft | 421 kts | 234° |
| 2026-04-27 14:06 | 51.99166 | 3.48707 | 23658 ft | 423 kts | 234° |
| 2026-04-27 14:06 | 51.97393 | 3.44883 | 24133 ft | 426 kts | 236° |
| 2026-04-27 14:06 | 51.95652 | 3.40987 | 24597 ft | 427 kts | 237° |
| 2026-04-27 14:06 | 51.93911 | 3.37072 | 25074 ft | 429 kts | 236° |
| 2026-04-27 14:07 | 51.92156 | 3.33156 | 25533 ft | 431 kts | 236° |
| 2026-04-27 14:07 | 51.90383 | 3.29232 | 25995 ft | 432 kts | 236° |
| 2026-04-27 14:07 | 51.88594 | 3.25300 | 26411 ft | 434 kts | 236° |
| 2026-04-27 14:07 | 51.86881 | 3.21281 | 26792 ft | 434 kts | 242° |
| 2026-04-27 14:08 | 51.85596 | 3.16868 | 27134 ft | 435 kts | 251° |
| 2026-04-27 14:08 | 51.84677 | 3.12199 | 27540 ft | 435 kts | 257° |
| 2026-04-27 14:08 | 51.84157 | 3.07380 | 27931 ft | 436 kts | 264° |
| 2026-04-27 14:08 | 51.83869 | 3.02493 | 28317 ft | 438 kts | 265° |
| 2026-04-27 14:09 | 51.83590 | 2.97580 | 28663 ft | 440 kts | 265° |
| 2026-04-27 14:09 | 51.83298 | 2.92643 | 29000 ft | 442 kts | 265° |
| 2026-04-27 14:09 | 51.82989 | 2.87684 | 29321 ft | 444 kts | 264° |
| 2026-04-27 14:09 | 51.82668 | 2.82713 | 29649 ft | 446 kts | 264° |
| 2026-04-27 14:10 | 51.82337 | 2.77717 | 29936 ft | 448 kts | 264° |
| 2026-04-27 14:10 | 51.82004 | 2.72715 | 30265 ft | 448 kts | 264° |
| 2026-04-27 14:10 | 51.81668 | 2.67713 | 30643 ft | 447 kts | 264° |
| 2026-04-27 14:10 | 51.81331 | 2.62735 | 30957 ft | 446 kts | 264° |
| 2026-04-27 14:11 | 51.80988 | 2.57748 | 31248 ft | 446 kts | 264° |
| 2026-04-27 14:11 | 51.80642 | 2.52763 | 31519 ft | 447 kts | 264° |
| 2026-04-27 14:11 | 51.80295 | 2.47776 | 31813 ft | 446 kts | 264° |
| 2026-04-27 14:11 | 51.79946 | 2.42797 | 32099 ft | 446 kts | 264° |
| 2026-04-27 14:12 | 51.79595 | 2.37805 | 32213 ft | 449 kts | 264° |
| 2026-04-27 14:12 | 51.78890 | 2.27833 | 32276 ft | 449 kts | 264° |
| 2026-04-27 14:13 | 51.78201 | 2.17866 | 32283 ft | 446 kts | 265° |
| 2026-04-27 14:13 | 51.77625 | 2.07893 | 32283 ft | 446 kts | 265° |
| 2026-04-27 14:14 | 51.77053 | 1.97926 | 32283 ft | 447 kts | 265° |
| 2026-04-27 14:14 | 51.76455 | 1.87936 | 32291 ft | 448 kts | 265° |
| 2026-04-27 14:15 | 51.75841 | 1.77908 | 32291 ft | 450 kts | 265° |
| 2026-04-27 14:15 | 51.75217 | 1.67841 | 32286 ft | 451 kts | 265° |
| 2026-04-27 14:16 | 51.74581 | 1.57753 | 32287 ft | 453 kts | 265° |
| 2026-04-27 14:16 | 51.73924 | 1.47640 | 32285 ft | 453 kts | 265° |
| 2026-04-27 14:17 | 51.73260 | 1.37532 | 32278 ft | 454 kts | 265° |
| 2026-04-27 14:17 | 51.72587 | 1.27389 | 32280 ft | 454 kts | 265° |
| 2026-04-27 14:18 | 51.71908 | 1.17248 | 32273 ft | 455 kts | 265° |
| 2026-04-27 14:18 | 51.71219 | 1.07108 | 32270 ft | 455 kts | 265° |
| 2026-04-27 14:19 | 51.70538 | 0.96960 | 32265 ft | 456 kts | 266° |
| 2026-04-27 14:19 | 51.69837 | 0.86803 | 32266 ft | 457 kts | 265° |
| 2026-04-27 14:20 | 51.69085 | 0.76625 | 32261 ft | 458 kts | 264° |
| 2026-04-27 14:20 | 51.68060 | 0.66534 | 32263 ft | 460 kts | 263° |
| 2026-04-27 14:21 | 51.66957 | 0.56317 | 32260 ft | 461 kts | 263° |
| 2026-04-27 14:21 | 51.65863 | 0.46132 | 32258 ft | 462 kts | 263° |
| 2026-04-27 14:22 | 51.64774 | 0.35932 | 32252 ft | 463 kts | 263° |
| 2026-04-27 14:22 | 51.63678 | 0.25712 | 32255 ft | 464 kts | 263° |
| 2026-04-27 14:23 | 51.62572 | 0.15491 | 32261 ft | 465 kts | 263° |
| 2026-04-27 14:23 | 51.61462 | 0.05321 | 32272 ft | 466 kts | 263° |
| 2026-04-27 14:24 | 51.60338 | -0.04889 | 32265 ft | 467 kts | 263° |
| 2026-04-27 14:24 | 51.59383 | -0.13501 | 32261 ft | 467 kts | 264° |
| 2026-04-27 14:25 | 51.58231 | -0.23798 | 32259 ft | 468 kts | 264° |
| 2026-04-27 14:25 | 51.56880 | -0.35786 | 32257 ft | 469 kts | 264° |
| 2026-04-27 14:26 | 51.55704 | -0.46117 | 32266 ft | 470 kts | 264° |
| 2026-04-27 14:26 | 51.54710 | -0.54786 | 32268 ft | 471 kts | 264° |
| 2026-04-27 14:27 | 51.53513 | -0.65144 | 32267 ft | 472 kts | 264° |
| 2026-04-27 14:27 | 51.52304 | -0.75529 | 32258 ft | 473 kts | 264° |
| 2026-04-27 14:28 | 51.51083 | -0.85926 | 32260 ft | 475 kts | 264° |
| 2026-04-27 14:28 | 51.49848 | -0.96362 | 32262 ft | 476 kts | 264° |
| 2026-04-27 14:29 | 51.48610 | -1.06740 | 32262 ft | 478 kts | 264° |
| 2026-04-27 14:29 | 51.47349 | -1.17222 | 32260 ft | 479 kts | 264° |
| 2026-04-27 14:30 | 51.46076 | -1.27724 | 32261 ft | 480 kts | 264° |
| 2026-04-27 14:30 | 51.44792 | -1.38235 | 32258 ft | 481 kts | 264° |
| 2026-04-27 14:31 | 51.43495 | -1.48771 | 32253 ft | 482 kts | 264° |
| 2026-04-27 14:31 | 51.42188 | -1.59310 | 32263 ft | 483 kts | 264° |
| 2026-04-27 14:32 | 51.40865 | -1.69856 | 32256 ft | 484 kts | 263° |
| 2026-04-27 14:32 | 51.38864 | -1.80230 | 32272 ft | 490 kts | 255° |
| 2026-04-27 14:33 | 51.36508 | -1.90490 | 32265 ft | 491 kts | 255° |
| 2026-04-27 14:33 | 51.34391 | -2.00860 | 32258 ft | 488 kts | 261° |
| 2026-04-27 14:34 | 51.33301 | -2.11499 | 32271 ft | 484 kts | 268° |
| 2026-04-27 14:34 | 51.32407 | -2.22188 | 32266 ft | 486 kts | 267° |
| 2026-04-27 14:35 | 51.31470 | -2.32910 | 32266 ft | 487 kts | 267° |
| 2026-04-27 14:35 | 51.30501 | -2.43638 | 32264 ft | 488 kts | 267° |
| 2026-04-27 14:36 | 51.29512 | -2.54387 | 32269 ft | 489 kts | 266° |
| 2026-04-27 14:36 | 51.28514 | -2.65146 | 32264 ft | 490 kts | 266° |
| 2026-04-27 14:37 | 51.27505 | -2.75916 | 32264 ft | 491 kts | 266° |
| 2026-04-27 14:37 | 51.26486 | -2.86692 | 32270 ft | 491 kts | 266° |
| 2026-04-27 14:38 | 51.25456 | -2.97473 | 32261 ft | 492 kts | 266° |
| 2026-04-27 14:38 | 51.24423 | -3.08190 | 32280 ft | 492 kts | 266° |
| 2026-04-27 14:39 | 51.23364 | -3.19053 | 32283 ft | 493 kts | 266° |
| 2026-04-27 14:39 | 51.22309 | -3.29782 | 32289 ft | 494 kts | 266° |
| 2026-04-27 14:40 | 51.21235 | -3.40588 | 32289 ft | 495 kts | 266° |
| 2026-04-27 14:40 | 51.20147 | -3.51441 | 32292 ft | 496 kts | 266° |
| 2026-04-27 14:41 | 51.19047 | -3.62315 | 32285 ft | 498 kts | 266° |
| 2026-04-27 14:41 | 51.17943 | -3.73220 | 32278 ft | 498 kts | 267° |
| 2026-04-27 14:42 | 51.17473 | -3.84153 | 32283 ft | 494 kts | 274° |
| 2026-04-27 14:42 | 51.17248 | -3.95091 | 32284 ft | 494 kts | 274° |
| 2026-04-27 14:43 | 51.17005 | -4.06036 | 32287 ft | 495 kts | 273° |
| 2026-04-27 14:43 | 51.16722 | -4.16990 | 32294 ft | 495 kts | 273° |
| 2026-04-27 14:44 | 51.16417 | -4.27959 | 32289 ft | 496 kts | 273° |
| 2026-04-27 14:44 | 51.16101 | -4.38922 | 32296 ft | 496 kts | 273° |
| 2026-04-27 14:45 | 51.15775 | -4.49896 | 32303 ft | 496 kts | 273° |
| 2026-04-27 14:45 | 51.15440 | -4.60886 | 32307 ft | 497 kts | 272° |
| 2026-04-27 14:46 | 51.15095 | -4.71894 | 32311 ft | 498 kts | 272° |
| 2026-04-27 14:46 | 51.14738 | -4.82915 | 32315 ft | 499 kts | 272° |
| 2026-04-27 14:47 | 51.14373 | -4.93876 | 32316 ft | 500 kts | 272° |
| 2026-04-27 14:47 | 51.13992 | -5.05008 | 32316 ft | 500 kts | 272° |
| 2026-04-27 14:48 | 51.13605 | -5.15999 | 32322 ft | 501 kts | 272° |
| 2026-04-27 14:48 | 51.13000 | -5.32612 | 32330 ft | 502 kts | 272° |
| 2026-04-27 14:49 | 51.12583 | -5.43700 | 32323 ft | 502 kts | 272° |
| 2026-04-27 14:49 | 51.12156 | -5.54788 | 32331 ft | 502 kts | 272° |
| 2026-04-27 14:50 | 51.11718 | -5.65879 | 32334 ft | 502 kts | 272° |
| 2026-04-27 14:50 | 51.11269 | -5.76985 | 32337 ft | 503 kts | 271° |
| 2026-04-27 14:51 | 51.10809 | -5.88091 | 32340 ft | 503 kts | 271° |
| 2026-04-27 14:51 | 51.10415 | -5.97403 | 32337 ft | 504 kts | 271° |
| 2026-04-27 14:52 | 51.09857 | -6.10326 | 32344 ft | 504 kts | 271° |
| 2026-04-27 14:52 | 51.09364 | -6.21449 | 32345 ft | 504 kts | 271° |
| 2026-04-27 14:53 | 51.08861 | -6.32584 | 32346 ft | 505 kts | 271° |
| 2026-04-27 14:53 | 51.08346 | -6.43730 | 32346 ft | 505 kts | 271° |
| 2026-04-27 14:54 | 51.07821 | -6.54870 | 32350 ft | 506 kts | 271° |
| 2026-04-27 14:54 | 51.07284 | -6.66028 | 32351 ft | 506 kts | 271° |
| 2026-04-27 14:55 | 51.06736 | -6.77188 | 32353 ft | 506 kts | 270° |
| 2026-04-27 14:55 | 51.06178 | -6.88345 | 32354 ft | 507 kts | 270° |
| 2026-04-27 14:56 | 51.05608 | -6.99512 | 32358 ft | 507 kts | 270° |
| 2026-04-27 14:56 | 51.05028 | -7.10672 | 32356 ft | 507 kts | 270° |
| 2026-04-27 14:57 | 51.04437 | -7.21835 | 32360 ft | 507 kts | 270° |
| 2026-04-27 14:57 | 51.03836 | -7.32990 | 32358 ft | 507 kts | 270° |
| 2026-04-27 14:58 | 51.03224 | -7.44151 | 32362 ft | 507 kts | 269° |
| 2026-04-27 14:58 | 51.02601 | -7.55306 | 32362 ft | 507 kts | 269° |
| 2026-04-27 14:59 | 51.01968 | -7.66456 | 32359 ft | 507 kts | 269° |
| 2026-04-27 14:59 | 51.01325 | -7.77600 | 32364 ft | 507 kts | 269° |
| 2026-04-27 15:00 | 51.00671 | -7.88746 | 32368 ft | 507 kts | 269° |
| 2026-04-27 15:00 | 50.99996 | -7.99896 | 32358 ft | 508 kts | 268° |
| 2026-04-27 15:01 | 50.98853 | -8.10991 | 32370 ft | 510 kts | 264° |
| 2026-04-27 15:01 | 50.97580 | -8.22002 | 32376 ft | 511 kts | 263° |
| 2026-04-27 15:02 | 50.96298 | -8.33089 | 32370 ft | 511 kts | 263° |
| 2026-04-27 15:02 | 50.95026 | -8.44200 | 32371 ft | 512 kts | 263° |
| 2026-04-27 15:03 | 50.93753 | -8.55308 | 32376 ft | 512 kts | 263° |
| 2026-04-27 15:03 | 50.92469 | -8.66417 | 32379 ft | 513 kts | 263° |
| 2026-04-27 15:04 | 50.91171 | -8.77530 | 32379 ft | 513 kts | 263° |
| 2026-04-27 15:04 | 50.89861 | -8.88648 | 32371 ft | 513 kts | 263° |
| 2026-04-27 15:05 | 50.88540 | -8.99755 | 32373 ft | 513 kts | 263° |
| 2026-04-27 15:05 | 50.87208 | -9.10865 | 32378 ft | 514 kts | 263° |
| 2026-04-27 15:06 | 50.85866 | -9.21964 | 32381 ft | 514 kts | 263° |
| 2026-04-27 15:06 | 50.84512 | -9.33075 | 32382 ft | 514 kts | 262° |
| 2026-04-27 15:07 | 50.83147 | -9.44176 | 32380 ft | 514 kts | 262° |
| 2026-04-27 15:07 | 50.81771 | -9.55273 | 32380 ft | 515 kts | 262° |
| 2026-04-27 15:08 | 50.80383 | -9.66377 | 32384 ft | 515 kts | 262° |
| 2026-04-27 15:08 | 50.78994 | -9.77406 | 32383 ft | 515 kts | 262° |
| 2026-04-27 15:09 | 50.77575 | -9.88573 | 32384 ft | 515 kts | 262° |
| 2026-04-27 15:09 | 50.76155 | -9.99659 | 32384 ft | 515 kts | 262° |
| 2026-04-27 15:10 | 50.74723 | -10.10755 | 32390 ft | 516 kts | 262° |
| 2026-04-27 15:10 | 50.73290 | -10.21769 | 32388 ft | 516 kts | 261° |
| 2026-04-27 15:11 | 50.71836 | -10.32859 | 32392 ft | 516 kts | 261° |
| 2026-04-27 15:11 | 50.70371 | -10.43941 | 32391 ft | 516 kts | 261° |